Time;durP1;ratioP1;P1;durP2;ratioP2;P2;SDS_P1;SDS_P2;PMS_P1;PMS_P2;Temp;Humidity;BMP_temperature;BMP_pressure;BME280_temperature;BME280_humidity;BME280_pressure;Samples;Min_cycle;Max_cycle;Signal;HPM_P1;HPM_P2
2021/06/04 00:00:21;;;;;;;5.78;2.80;;;22.10;50.90;;;;;;5040331;28;20061;-58
2021/06/04 00:02:49;;;;;;;7.33;2.87;;;22.10;50.90;;;;;;5053721;28;20433;-58
2021/06/04 00:05:23;;;;;;;6.25;2.72;;;22.10;50.90;;;;;;5052231;28;20124;-58
2021/06/04 00:07:51;;;;;;;8.95;3.10;;;22.10;50.90;;;;;;5069651;28;20080;-59
2021/06/04 00:10:46;;;;;;;4.72;2.75;;;22.10;50.90;;;;;;5041752;28;20088;-58
2021/06/04 00:13:24;;;;;;;4.28;2.33;;;22.10;51.00;;;;;;5070045;28;20105;-58
2021/06/04 00:16:04;;;;;;;8.75;2.60;;;22.10;51.00;;;;;;5037586;28;20156;-57
2021/06/04 00:18:33;;;;;;;6.72;2.75;;;22.10;51.00;;;;;;5054315;28;20401;-59
2021/06/04 00:21:03;;;;;;;7.13;2.55;;;22.10;51.00;;;;;;5054672;28;20048;-58
2021/06/04 00:23:31;;;;;;;6.00;2.70;;;22.10;51.00;;;;;;5055897;28;20409;-58
2021/06/04 00:26:00;;;;;;;7.43;2.72;;;22.10;51.10;;;;;;5056418;28;20080;-58
2021/06/04 00:28:27;;;;;;;7.25;3.30;;;22.10;51.00;;;;;;5039049;28;20057;-58
2021/06/04 00:30:55;;;;;;;6.63;2.53;;;22.10;51.10;;;;;;5068832;28;20507;-58
2021/06/04 00:33:22;;;;;;;5.35;2.22;;;22.10;51.10;;;;;;5054251;28;20061;-59
2021/06/04 00:35:50;;;;;;;9.07;2.88;;;22.10;51.10;;;;;;5054490;28;20045;-58
2021/06/04 00:38:17;;;;;;;4.57;2.50;;;22.10;51.10;;;;;;5054030;28;20177;-58
2021/06/04 00:40:49;;;;;;;5.38;2.50;;;22.10;51.10;;;;;;5055608;28;20122;-58
2021/06/04 00:43:17;;;;;;;5.70;2.47;;;22.10;51.10;;;;;;5054430;28;20129;-58
2021/06/04 00:45:48;;;;;;;4.55;2.38;;;22.10;51.10;;;;;;5054145;28;20048;-58
2021/06/04 00:48:17;;;;;;;8.02;2.65;;;22.10;51.10;;;;;;5044698;28;20061;-59
2021/06/04 00:51:04;;;;;;;5.00;2.38;;;22.10;51.10;;;;;;5046406;28;20057;-58
2021/06/04 00:53:31;;;;;;;7.38;3.03;;;22.10;51.20;;;;;;5053628;28;20570;-58
2021/06/04 00:56:00;;;;;;;3.42;2.20;;;22.10;51.20;;;;;;5042907;28;20104;-58
2021/06/04 00:58:35;;;;;;;6.28;2.88;;;22.10;51.20;;;;;;5046385;28;20079;-58
2021/06/04 01:01:04;;;;;;;4.25;2.15;;;22.10;51.20;;;;;;5067911;28;20496;-58
2021/06/04 01:03:36;;;;;;;5.70;2.83;;;22.10;51.20;;;;;;5055790;28;20073;-58
2021/06/04 01:06:20;;;;;;;5.03;2.53;;;22.10;51.20;;;;;;5049839;28;20486;-58
2021/06/04 01:09:06;;;;;;;5.15;2.67;;;22.10;51.30;;;;;;5054872;28;20087;-59
2021/06/04 01:11:39;;;;;;;6.68;2.63;;;22.10;51.30;;;;;;5068032;28;20132;-58
2021/06/04 01:14:22;;;;;;;6.50;2.83;;;22.10;51.30;;;;;;5054555;28;20481;-59
2021/06/04 01:16:57;;;;;;;9.90;2.63;;;22.00;51.20;;;;;;5053154;28;20084;-58
2021/06/04 01:19:28;;;;;;;3.97;2.47;;;22.00;51.20;;;;;;5053004;28;20068;-58
2021/06/04 01:21:59;;;;;;;7.78;2.60;;;22.00;51.30;;;;;;5065656;28;20084;-58
2021/06/04 01:25:12;;;;;;;5.47;2.88;;;22.10;51.30;;;;;;5059084;28;20484;-59
2021/06/04 01:27:45;;;;;;;6.43;2.60;;;22.00;51.30;;;;;;5069017;28;20098;-59
2021/06/04 01:30:32;;;;;;;4.95;2.45;;;22.10;51.40;;;;;;5052262;28;20558;-59
2021/06/04 01:33:05;;;;;;;3.88;2.20;;;22.00;51.30;;;;;;5052866;28;20128;-59
2021/06/04 01:35:42;;;;;;;8.70;3.00;;;22.00;51.30;;;;;;5069602;28;20048;-59
2021/06/04 01:38:14;;;;;;;4.25;2.40;;;22.10;51.40;;;;;;5052052;28;20110;-58
2021/06/04 01:40:46;;;;;;;6.25;2.47;;;22.10;51.40;;;;;;5053912;28;20060;-59
2021/06/04 01:43:23;;;;;;;7.55;2.63;;;22.00;51.30;;;;;;5034890;28;20081;-59
2021/06/04 01:45:56;;;;;;;4.35;2.58;;;22.00;51.30;;;;;;5052644;28;20493;-58
2021/06/04 01:48:28;;;;;;;4.18;2.78;;;22.00;51.30;;;;;;5052258;28;20136;-59
2021/06/04 01:51:26;;;;;;;3.55;2.35;;;22.00;51.30;;;;;;5052554;28;20122;-61
2021/06/04 01:54:00;;;;;;;3.20;2.30;;;22.00;51.30;;;;;;5037850;28;20128;-59
2021/06/04 01:56:30;;;;;;;;;;;22.00;51.30;;;;;;5054381;28;20076;-59
2021/06/04 01:59:05;;;;;;;4.00;2.58;;;22.00;51.40;;;;;;5052622;28;20007;-59
2021/06/04 02:01:37;;;;;;;6.70;3.17;;;22.00;51.40;;;;;;5036091;28;20072;-58
2021/06/04 02:04:11;;;;;;;8.82;2.72;;;22.00;51.40;;;;;;5053586;28;20056;-59
2021/06/04 02:06:39;;;;;;;6.20;2.72;;;22.00;51.40;;;;;;5035283;28;20120;-58
2021/06/04 02:09:09;;;;;;;6.18;2.30;;;22.00;51.40;;;;;;5049307;28;20045;-58
2021/06/04 02:11:38;;;;;;;5.63;2.70;;;22.00;51.40;;;;;;5052652;28;20513;-59
2021/06/04 02:14:09;;;;;;;5.65;2.70;;;22.00;51.40;;;;;;5052568;28;20500;-58
2021/06/04 02:16:50;;;;;;;4.30;2.75;;;22.00;51.40;;;;;;5052089;28;20044;-59
2021/06/04 02:19:27;;;;;;;3.47;2.33;;;22.00;51.40;;;;;;5051776;28;20128;-59
2021/06/04 02:22:19;;;;;;;3.42;2.33;;;22.00;51.40;;;;;;5051759;28;20448;-59
2021/06/04 02:25:13;;;;;;;4.45;2.85;;;22.00;51.40;;;;;;5037942;28;20044;-59
2021/06/04 02:27:56;;;;;;;3.65;2.22;;;22.00;51.40;;;;;;5010328;28;20073;-58
2021/06/04 02:30:40;;;;;;;6.20;2.63;;;22.00;51.50;;;;;;5015482;28;20123;-58
2021/06/04 02:33:16;;;;;;;3.00;2.50;;;22.00;51.50;;;;;;5020207;28;20540;-59
2021/06/04 02:35:51;;;;;;;7.28;2.33;;;22.00;51.50;;;;;;5010405;28;20092;-58
2021/06/04 02:38:44;;;;;;;6.30;2.35;;;22.00;51.50;;;;;;5016996;28;20042;-58
2021/06/04 02:41:20;;;;;;;4.80;2.75;;;22.00;51.50;;;;;;4987674;28;20097;-59
2021/06/04 02:44:02;;;;;;;3.80;2.55;;;22.00;51.50;;;;;;5004887;28;20120;-59
2021/06/04 02:46:34;;;;;;;4.35;2.47;;;22.00;51.50;;;;;;5011256;28;20600;-58
2021/06/04 02:49:02;;;;;;;4.00;2.40;;;21.90;51.50;;;;;;5011440;28;20100;-58
2021/06/04 02:51:34;;;;;;;4.60;2.65;;;22.00;51.50;;;;;;5010239;28;20046;-59
2021/06/04 02:54:09;;;;;;;7.03;2.65;;;21.90;51.40;;;;;;5010004;28;20054;-59
2021/06/04 02:56:41;;;;;;;4.28;2.28;;;22.00;51.50;;;;;;5010260;28;20126;-59
2021/06/04 02:59:17;;;;;;;7.97;2.27;;;21.90;51.40;;;;;;5011256;28;20077;-59
2021/06/04 03:01:59;;;;;;;3.30;2.75;;;22.00;51.50;;;;;;5014124;28;20037;-59
2021/06/04 03:04:31;;;;;;;4.28;2.30;;;21.90;51.40;;;;;;5030836;28;20095;-59
2021/06/04 03:07:03;;;;;;;3.40;2.40;;;22.00;51.50;;;;;;5044068;28;20077;-59
2021/06/04 03:09:34;;;;;;;3.13;2.38;;;22.00;51.50;;;;;;5045887;28;20050;-59
2021/06/04 03:12:16;;;;;;;4.15;2.55;;;22.00;51.50;;;;;;5050589;28;20452;-58
2021/06/04 03:14:43;;;;;;;6.32;2.38;;;21.90;51.40;;;;;;5055656;28;20135;-59
2021/06/04 03:17:11;;;;;;;3.60;2.55;;;22.00;51.50;;;;;;5056812;28;20128;-59
2021/06/04 03:19:40;;;;;;;5.65;2.50;;;22.00;51.50;;;;;;5055463;28;20116;-59
2021/06/04 03:22:19;;;;;;;4.00;2.63;;;22.00;51.40;;;;;;5054311;28;20117;-59
2021/06/04 03:24:46;;;;;;;5.32;2.42;;;22.00;51.50;;;;;;5053530;28;20095;-59
2021/06/04 03:27:18;;;;;;;4.38;2.22;;;22.00;51.50;;;;;;5056620;28;20084;-59
2021/06/04 03:29:47;;;;;;;4.47;2.50;;;22.00;51.40;;;;;;5054611;28;20057;-59
2021/06/04 03:32:15;;;;;;;4.30;2.63;;;22.00;51.40;;;;;;5054126;28;20107;-59
2021/06/04 03:34:45;;;;;;;3.45;2.38;;;22.00;51.30;;;;;;5055659;28;20485;-60
2021/06/04 03:37:14;;;;;;;4.82;2.67;;;22.00;51.40;;;;;;5049437;28;20045;-60
2021/06/04 03:39:44;;;;;;;5.47;2.45;;;22.00;51.30;;;;;;5042781;28;20045;-59
2021/06/04 03:42:20;;;;;;;4.55;2.45;;;22.00;51.30;;;;;;5057731;28;20071;-59
2021/06/04 03:44:51;;;;;;;4.03;2.38;;;22.00;51.30;;;;;;5083665;28;20110;-60
2021/06/04 03:47:19;;;;;;;3.72;2.40;;;22.00;51.20;;;;;;5056083;28;20045;-60
2021/06/04 03:49:47;;;;;;;4.20;2.72;;;22.00;51.20;;;;;;5051554;28;20045;-58
2021/06/04 03:52:20;;;;;;;3.13;2.17;;;22.00;51.20;;;;;;5041019;28;21652;-60
2021/06/04 03:54:52;;;;;;;4.25;2.40;;;22.10;51.20;;;;;;5053901;28;21074;-58
2021/06/04 03:57:25;;;;;;;3.60;2.33;;;22.10;51.20;;;;;;5052409;28;20053;-59
2021/06/04 03:59:53;;;;;;;3.33;2.15;;;22.10;51.20;;;;;;5056191;28;20098;-60
2021/06/04 04:02:23;;;;;;;3.38;2.30;;;22.10;51.20;;;;;;5053238;28;20476;-59
2021/06/04 04:04:56;;;;;;;3.92;2.40;;;22.10;51.10;;;;;;5039091;28;20468;-59
2021/06/04 04:07:28;;;;;;;3.38;2.22;;;22.10;51.10;;;;;;5042691;28;20040;-59
2021/06/04 04:09:57;;;;;;;3.75;2.13;;;22.10;51.10;;;;;;5051900;28;20128;-58
2021/06/04 04:12:26;;;;;;;4.35;2.30;;;22.10;51.00;;;;;;5052503;28;20485;-60
2021/06/04 04:14:54;;;;;;;5.90;2.00;;;22.10;51.00;;;;;;5053781;28;20084;-59
2021/06/04 04:17:21;;;;;;;3.72;2.58;;;22.20;51.00;;;;;;5071941;28;20052;-59
2021/06/04 04:19:49;;;;;;;4.25;2.45;;;22.20;51.00;;;;;;5036200;28;20132;-60
2021/06/04 04:22:16;;;;;;;4.63;2.13;;;22.20;50.90;;;;;;5053681;28;20045;-59
2021/06/04 04:24:44;;;;;;;2.92;2.30;;;22.20;50.90;;;;;;5052659;28;20122;-59
2021/06/04 04:27:12;;;;;;;3.38;2.45;;;22.20;50.80;;;;;;5053538;28;20069;-60
2021/06/04 04:29:40;;;;;;;5.95;2.50;;;22.30;50.90;;;;;;5039240;28;20053;-59
2021/06/04 04:32:13;;;;;;;3.35;2.30;;;22.30;50.80;;;;;;5051380;28;20128;-59
2021/06/04 04:34:42;;;;;;;5.40;2.55;;;22.30;50.80;;;;;;5053380;28;20115;-59
2021/06/04 04:37:12;;;;;;;3.08;2.15;;;22.30;50.70;;;;;;5052232;28;20049;-59
2021/06/04 04:39:42;;;;;;;5.32;2.40;;;22.40;50.80;;;;;;5052030;28;20099;-59
2021/06/04 04:42:11;;;;;;;2.72;2.15;;;22.40;50.70;;;;;;5052166;28;20124;-59
2021/06/04 04:44:42;;;;;;;3.22;2.10;;;22.40;50.60;;;;;;5067700;28;20056;-58
2021/06/04 04:47:13;;;;;;;4.43;2.53;;;22.40;50.60;;;;;;5053030;28;20459;-58
2021/06/04 04:49:41;;;;;;;2.92;1.85;;;22.40;50.60;;;;;;5041224;28;20112;-59
2021/06/04 04:52:13;;;;;;;2.83;2.10;;;22.40;50.50;;;;;;5035178;28;172304;-59
2021/06/04 04:54:53;;;;;;;4.50;2.45;;;22.50;50.50;;;;;;5050741;28;20505;-60
2021/06/04 04:57:22;;;;;;;3.40;2.15;;;22.50;50.40;;;;;;5049331;28;20562;-58
2021/06/04 04:59:51;;;;;;;2.60;2.08;;;22.50;50.40;;;;;;5053804;28;20049;-59
2021/06/04 05:02:18;;;;;;;4.20;2.58;;;22.50;50.20;;;;;;5053859;28;20374;-59
2021/06/04 05:04:46;;;;;;;5.47;2.60;;;22.60;50.30;;;;;;5052454;28;20049;-59
2021/06/04 05:07:13;;;;;;;2.80;2.50;;;22.60;50.20;;;;;;5050410;28;20076;-60
2021/06/04 05:09:40;;;;;;;2.47;2.10;;;22.70;50.30;;;;;;5053538;28;20455;-60
2021/06/04 05:12:08;;;;;;;3.78;2.30;;;22.70;50.20;;;;;;5053562;28;20056;-59
2021/06/04 05:14:37;;;;;;;2.50;1.85;;;22.70;50.20;;;;;;5048911;28;20049;-59
2021/06/04 05:17:05;;;;;;;2.97;2.15;;;22.70;50.10;;;;;;5036879;28;20519;-58
2021/06/04 05:19:33;;;;;;;2.50;2.00;;;22.80;50.10;;;;;;5037229;28;20119;-59
2021/06/04 05:22:00;;;;;;;4.10;2.42;;;22.80;50.00;;;;;;5054757;28;20045;-59
2021/06/04 05:24:27;;;;;;;3.15;2.25;;;22.80;50.00;;;;;;5053217;28;20061;-59
2021/06/04 05:26:54;;;;;;;5.35;2.28;;;22.80;49.90;;;;;;5051945;28;20452;-58
2021/06/04 05:29:22;;;;;;;3.83;2.05;;;22.90;49.90;;;;;;5036922;28;20405;-59
2021/06/04 05:31:50;;;;;;;2.25;1.90;;;22.90;49.80;;;;;;5036628;28;20072;-59
2021/06/04 05:34:18;;;;;;;2.75;2.00;;;22.90;49.70;;;;;;5036668;28;20140;-60
2021/06/04 05:36:45;;;;;;;2.45;2.10;;;22.90;49.60;;;;;;5034988;28;20123;-59
2021/06/04 05:39:18;;;;;;;2.70;2.10;;;23.00;49.60;;;;;;5036531;28;20132;-59
2021/06/04 05:41:48;;;;;;;3.97;2.27;;;23.00;49.60;;;;;;5050964;28;20497;-59
2021/06/04 05:44:20;;;;;;;4.65;2.03;;;23.00;49.50;;;;;;5053126;28;20076;-59
2021/06/04 05:46:50;;;;;;;3.25;2.42;;;23.10;49.60;;;;;;5053302;28;20095;-59
2021/06/04 05:49:19;;;;;;;2.13;1.88;;;23.10;49.60;;;;;;5069742;28;20045;-60
2021/06/04 05:51:46;;;;;;;2.38;2.03;;;23.10;49.60;;;;;;5054883;28;20497;-59
2021/06/04 05:54:16;;;;;;;3.45;2.10;;;23.10;49.60;;;;;;5038711;28;20049;-59
2021/06/04 05:56:44;;;;;;;4.13;2.10;;;23.10;49.60;;;;;;5051983;28;20107;-59
2021/06/04 05:59:13;;;;;;;3.58;2.25;;;23.10;49.60;;;;;;5051165;28;20045;-58
2021/06/04 06:01:40;;;;;;;2.67;2.05;;;23.10;49.60;;;;;;5052930;28;20075;-58
2021/06/04 06:04:08;;;;;;;2.88;2.25;;;23.10;49.60;;;;;;5052710;28;20106;-58
2021/06/04 06:06:35;;;;;;;2.50;1.85;;;23.10;49.60;;;;;;5051971;28;20052;-58
2021/06/04 06:09:05;;;;;;;3.83;1.98;;;23.10;49.50;;;;;;5042526;28;20084;-58
2021/06/04 06:11:33;;;;;;;3.17;2.22;;;23.10;49.60;;;;;;5036059;28;20493;-59
2021/06/04 06:14:00;;;;;;;2.53;1.77;;;23.10;49.50;;;;;;5044049;28;20071;-58
2021/06/04 06:16:29;;;;;;;2.63;2.10;;;23.10;49.60;;;;;;5052472;28;20094;-59
2021/06/04 06:18:57;;;;;;;3.28;2.00;;;23.10;49.60;;;;;;5051336;28;20049;-58
2021/06/04 06:21:26;;;;;;;2.80;2.13;;;23.20;49.70;;;;;;5052260;28;20045;-60
2021/06/04 06:23:53;;;;;;;5.03;2.13;;;23.10;50.20;;;;;;5046639;28;20045;-59
2021/06/04 06:26:23;;;;;;;2.90;2.08;;;23.10;50.30;;;;;;5037240;28;20084;-59
2021/06/04 06:28:52;;;;;;;2.53;1.70;;;23.10;49.70;;;;;;5054092;28;20060;-58
2021/06/04 06:31:23;;;;;;;4.05;1.85;;;23.10;49.70;;;;;;5049023;28;20050;-58
2021/06/04 06:33:52;;;;;;;3.63;2.42;;;23.10;49.70;;;;;;5040100;28;20052;-58
2021/06/04 06:36:30;;;;;;;3.90;2.42;;;23.10;49.70;;;;;;5053434;28;20044;-58
2021/06/04 06:39:06;;;;;;;3.42;2.08;;;23.10;49.70;;;;;;5054421;28;20049;-58
2021/06/04 06:41:33;;;;;;;2.58;2.00;;;23.10;49.70;;;;;;5051241;28;20041;-58
2021/06/04 06:44:00;;;;;;;4.25;2.30;;;23.10;49.70;;;;;;5037759;28;20077;-59
2021/06/04 06:46:27;;;;;;;2.47;1.90;;;23.10;49.80;;;;;;5049528;28;20049;-58
2021/06/04 06:48:55;;;;;;;3.25;1.88;;;23.10;49.80;;;;;;5051848;28;20045;-58
2021/06/04 06:51:23;;;;;;;2.65;1.75;;;23.10;49.80;;;;;;5052849;28;20052;-58
2021/06/04 06:53:56;;;;;;;2.70;1.92;;;23.20;49.80;;;;;;5049429;28;20925;-58
2021/06/04 06:56:23;;;;;;;2.78;2.10;;;23.10;49.80;;;;;;5052594;28;20131;-58
2021/06/04 06:58:50;;;;;;;2.83;2.15;;;23.10;49.80;;;;;;5050856;28;20060;-59
2021/06/04 07:01:18;;;;;;;3.35;1.77;;;23.10;49.80;;;;;;5051687;28;20045;-58
2021/06/04 07:03:45;;;;;;;3.33;2.00;;;23.10;49.80;;;;;;5052317;28;20084;-59
2021/06/04 07:06:38;;;;;;;2.30;1.90;;;23.10;49.80;;;;;;5050085;28;20547;-59
2021/06/04 07:09:11;;;;;;;2.53;2.20;;;23.20;49.80;;;;;;5049995;28;20492;-58
2021/06/04 07:11:43;;;;;;;2.97;2.00;;;23.20;49.80;;;;;;5034011;28;20057;-59
2021/06/04 07:14:11;;;;;;;2.22;1.80;;;23.20;49.80;;;;;;5051131;28;20049;-59
2021/06/04 07:16:39;;;;;;;2.00;1.80;;;23.20;49.80;;;;;;5035909;28;20123;-59
2021/06/04 07:19:07;;;;;;;2.55;1.92;;;23.20;49.80;;;;;;5034111;28;20088;-59
2021/06/04 07:21:37;;;;;;;3.70;2.00;;;23.20;49.70;;;;;;5035474;28;20051;-59
2021/06/04 07:24:12;;;;;;;4.80;2.15;;;23.20;49.70;;;;;;5035392;28;20099;-59
2021/06/04 07:26:49;;;;;;;2.13;1.85;;;23.20;49.70;;;;;;5050452;28;20076;-59
2021/06/04 07:29:19;;;;;;;2.75;2.03;;;23.30;49.70;;;;;;5036164;28;20472;-59
2021/06/04 07:31:47;;;;;;;4.13;2.20;;;23.30;49.70;;;;;;5048834;28;20409;-58
2021/06/04 07:34:14;;;;;;;3.33;1.98;;;23.30;49.60;;;;;;5052985;28;20057;-59
2021/06/04 07:36:47;;;;;;;1.73;1.55;;;23.30;49.60;;;;;;5038469;28;20049;-58
2021/06/04 07:39:21;;;;;;;3.17;2.13;;;23.30;49.60;;;;;;5035014;28;20076;-58
2021/06/04 07:41:49;;;;;;;2.75;1.80;;;23.40;49.70;;;;;;5049680;28;20045;-59
2021/06/04 07:44:16;;;;;;;2.92;1.90;;;23.30;49.60;;;;;;5052479;28;20567;-58
2021/06/04 07:46:45;;;;;;;4.35;1.70;;;23.40;49.60;;;;;;5055942;28;20129;-59
2021/06/04 07:49:13;;;;;;;3.08;2.03;;;23.40;49.60;;;;;;5053136;28;20081;-59
2021/06/04 07:51:47;;;;;;;2.33;1.80;;;23.40;49.60;;;;;;5053716;28;20040;-59
2021/06/04 07:54:18;;;;;;;;;;;23.40;49.50;;;;;;5054237;28;20059;-58
2021/06/04 07:56:47;;;;;;;2.67;1.95;;;23.40;49.50;;;;;;5054766;28;20007;-57
2021/06/04 07:59:14;;;;;;;2.95;2.08;;;23.40;49.60;;;;;;5054984;28;20122;-58
2021/06/04 08:01:42;;;;;;;3.83;2.00;;;23.40;49.60;;;;;;5047287;28;20042;-58
2021/06/04 08:04:11;;;;;;;3.80;2.30;;;23.40;49.60;;;;;;5052874;28;20049;-59
2021/06/04 08:06:40;;;;;;;2.38;2.10;;;23.40;49.60;;;;;;5043495;28;20532;-60
2021/06/04 08:09:11;;;;;;;2.95;2.03;;;23.40;50.30;;;;;;5050314;28;20041;-59
2021/06/04 08:11:46;;;;;;;2.28;1.83;;;23.40;49.70;;;;;;5039514;28;20099;-59
2021/06/04 08:14:18;;;;;;;2.22;1.70;;;23.40;49.80;;;;;;5044767;28;20090;-59
2021/06/04 08:16:46;;;;;;;2.75;1.88;;;23.30;49.70;;;;;;5055550;28;20110;-59
2021/06/04 08:19:15;;;;;;;3.55;2.00;;;23.30;49.70;;;;;;5055635;28;20422;-59
2021/06/04 08:21:47;;;;;;;2.63;1.80;;;23.30;49.80;;;;;;5051971;28;20041;-59
2021/06/04 08:24:19;;;;;;;2.42;1.90;;;23.30;49.80;;;;;;5041208;28;20045;-59
2021/06/04 08:26:49;;;;;;;4.20;1.90;;;23.30;49.80;;;;;;5055763;28;20072;-59
2021/06/04 08:29:17;;;;;;;3.25;2.20;;;23.30;49.80;;;;;;5054259;28;20045;-59
2021/06/04 08:31:46;;;;;;;4.30;2.03;;;23.30;49.80;;;;;;5054164;28;20542;-59
2021/06/04 08:34:13;;;;;;;4.10;2.22;;;23.30;49.80;;;;;;5055372;28;20041;-59
2021/06/04 08:36:43;;;;;;;3.72;1.95;;;23.40;50.00;;;;;;5053416;28;20072;-59
2021/06/04 08:39:17;;;;;;;2.50;1.77;;;23.30;49.90;;;;;;5037592;28;20067;-59
2021/06/04 08:41:48;;;;;;;3.05;2.03;;;23.30;49.80;;;;;;5054120;28;20127;-59
2021/06/04 08:44:46;;;;;;;3.72;2.15;;;23.40;49.90;;;;;;5055503;28;20051;-60
2021/06/04 08:47:18;;;;;;;2.90;1.85;;;23.30;49.80;;;;;;5037772;28;20071;-59
2021/06/04 08:50:04;;;;;;;3.72;2.60;;;23.30;49.90;;;;;;5039642;28;20120;-57
2021/06/04 08:53:07;;;;;;;2.70;1.95;;;23.30;49.80;;;;;;5053969;28;20116;-57
2021/06/04 08:55:44;;;;;;;2.75;1.92;;;23.30;49.90;;;;;;4971519;28;20137;-57
2021/06/04 08:58:49;;;;;;;5.95;1.92;;;23.30;49.90;;;;;;4974657;28;20138;-58
2021/06/04 09:01:55;;;;;;;2.67;1.90;;;23.30;49.90;;;;;;4970265;28;20050;-59
2021/06/04 09:04:32;;;;;;;2.50;1.88;;;23.30;49.90;;;;;;4956074;28;20483;-59
2021/06/04 09:07:06;;;;;;;2.47;1.83;;;23.30;49.90;;;;;;4970128;28;20431;-58
2021/06/04 09:09:49;;;;;;;3.80;2.05;;;23.30;49.90;;;;;;4973875;28;20054;-57
2021/06/04 09:12:33;;;;;;;3.00;1.75;;;23.30;49.90;;;;;;4956983;28;20070;-57
2021/06/04 09:15:01;;;;;;;;;;;23.30;49.90;;;;;;4940518;28;20059;-58
2021/06/04 09:17:45;;;;;;;2.10;1.90;;;23.30;49.90;;;;;;4954860;28;20366;-58
2021/06/04 09:20:22;;;;;;;2.13;1.83;;;23.30;49.90;;;;;;4973865;28;20054;-57
2021/06/04 09:22:58;;;;;;;2.63;2.00;;;23.30;49.90;;;;;;4974288;28;20479;-58
2021/06/04 09:25:27;;;;;;;2.97;2.15;;;23.30;49.90;;;;;;4958755;28;20042;-58
2021/06/04 09:28:32;;;;;;;3.53;2.05;;;23.30;49.80;;;;;;4957111;28;20200;-58
2021/06/04 09:31:16;;;;;;;3.28;1.73;;;23.40;50.50;;;;;;4908745;28;20070;-58
2021/06/04 09:33:53;;;;;;;2.22;2.03;;;23.40;49.90;;;;;;4990535;28;20046;-58
2021/06/04 09:36:25;;;;;;;1.80;1.65;;;23.40;49.90;;;;;;4988733;28;20053;-58
2021/06/04 09:39:39;;;;;;;3.15;2.20;;;23.40;50.50;;;;;;4989391;28;20105;-58
2021/06/04 09:42:23;;;;;;;2.75;2.25;;;23.40;49.90;;;;;;4990572;28;20112;-59
2021/06/04 09:45:06;;;;;;;2.65;1.92;;;23.40;50.50;;;;;;4967322;28;20499;-58
2021/06/04 09:47:48;;;;;;;2.67;2.10;;;23.40;49.80;;;;;;4970944;28;20101;-58
2021/06/04 09:50:31;;;;;;;4.25;2.10;;;23.50;49.90;;;;;;4971083;28;20055;-58
2021/06/04 09:53:22;;;;;;;2.28;1.70;;;23.40;49.80;;;;;;4972601;28;20062;-58
2021/06/04 09:56:06;;;;;;;2.05;1.85;;;23.40;49.90;;;;;;4957062;28;20206;-59
2021/06/04 09:58:54;;;;;;;3.05;1.63;;;23.50;50.10;;;;;;4971083;28;20142;-59
2021/06/04 10:01:24;;;;;;;3.58;2.22;;;23.50;50.20;;;;;;4958008;28;20039;-58
2021/06/04 10:03:57;;;;;;;4.57;2.30;;;23.40;50.30;;;;;;4969261;28;20097;-59
2021/06/04 10:06:34;;;;;;;4.22;2.30;;;23.50;50.60;;;;;;4998191;28;20124;-57
2021/06/04 10:09:20;;;;;;;2.92;2.30;;;23.50;50.70;;;;;;5049493;28;20507;-59
2021/06/04 10:12:01;;;;;;;3.58;2.40;;;23.50;50.90;;;;;;5036090;28;20049;-58
2021/06/04 10:14:47;;;;;;;4.25;2.60;;;23.50;51.20;;;;;;5037391;28;20048;-53
2021/06/04 10:17:46;;;;;;;3.47;2.40;;;23.50;52.00;;;;;;5055991;28;20102;-48
2021/06/04 10:20:39;;;;;;;6.18;2.70;;;23.50;51.60;;;;;;5052397;28;20045;-50
2021/06/04 10:23:09;;;;;;;5.50;2.72;;;23.50;51.60;;;;;;5036806;28;20055;-52
2021/06/04 10:25:42;;;;;;;4.68;2.78;;;23.50;51.50;;;;;;5046496;28;20045;-51
2021/06/04 10:28:48;;;;;;;4.93;2.73;;;23.50;51.50;;;;;;5052140;28;20049;-53
2021/06/04 10:31:17;;;;;;;9.85;2.88;;;23.50;51.50;;;;;;4991561;28;20364;-49
2021/06/04 10:34:14;;;;;;;8.35;3.30;;;23.60;51.70;;;;;;4989536;28;20181;-50
2021/06/04 10:36:46;;;;;;;9.10;2.70;;;23.60;51.80;;;;;;4974924;28;20093;-52
2021/06/04 10:39:21;;;;;;;4.70;2.92;;;23.60;51.80;;;;;;4970814;28;20082;-52
2021/06/04 10:42:06;;;;;;;6.88;3.25;;;23.60;51.80;;;;;;4990259;28;20505;-53
2021/06/04 10:44:57;;;;;;;4.95;3.10;;;23.60;51.80;;;;;;4990565;28;20042;-49
2021/06/04 10:47:35;;;;;;;8.40;3.03;;;23.60;51.70;;;;;;4973881;28;20506;-49
2021/06/04 10:50:06;;;;;;;8.05;3.20;;;23.60;51.60;;;;;;4975690;28;20151;-50
2021/06/04 10:52:49;;;;;;;9.88;2.78;;;23.60;51.50;;;;;;4974008;28;20070;-49
2021/06/04 10:55:45;;;;;;;6.95;3.22;;;23.70;51.50;;;;;;4975020;28;20054;-47
2021/06/04 10:58:38;;;;;;;5.22;2.70;;;23.70;51.50;;;;;;4968913;28;20050;-53
2021/06/04 11:01:11;;;;;;;5.30;3.03;;;23.70;51.30;;;;;;4975239;28;20043;-49
2021/06/04 11:03:50;;;;;;;8.55;2.97;;;23.70;51.30;;;;;;4974785;28;20039;-51
2021/06/04 11:06:59;;;;;;;11.15;3.47;;;23.70;51.10;;;;;;5029849;28;20045;-48
2021/06/04 11:09:49;;;;;;;6.00;3.10;;;23.70;51.00;;;;;;5041894;28;20548;-52
2021/06/04 11:12:37;;;;;;;5.22;3.10;;;23.70;51.00;;;;;;5049749;28;20061;-52
2021/06/04 11:15:29;;;;;;;5.15;2.80;;;23.70;50.90;;;;;;5052775;28;20053;-50
2021/06/04 11:18:22;;;;;;;4.18;2.60;;;23.70;50.90;;;;;;5052998;28;20549;-49
2021/06/04 11:20:53;;;;;;;4.05;2.88;;;23.70;50.90;;;;;;5045366;28;20041;-52
2021/06/04 11:23:52;;;;;;;4.25;2.80;;;23.70;50.90;;;;;;5055736;28;20053;-49
2021/06/04 11:26:28;;;;;;;4.65;2.92;;;23.70;50.90;;;;;;5049185;28;20095;-51
2021/06/04 11:29:03;;;;;;;5.63;2.97;;;23.70;50.80;;;;;;5056694;28;20041;-51
2021/06/04 11:32:01;;;;;;;4.43;2.90;;;23.70;50.80;;;;;;5056688;28;20044;-48
2021/06/04 11:34:38;;;;;;;10.35;2.65;;;23.70;50.80;;;;;;5049556;28;20095;-50
2021/06/04 11:37:10;;;;;;;4.68;2.50;;;23.70;50.80;;;;;;5046162;28;20072;-52
2021/06/04 11:39:43;;;;;;;3.03;2.42;;;23.60;50.70;;;;;;5055599;28;20049;-49
2021/06/04 11:42:18;;;;;;;5.20;2.90;;;23.60;50.80;;;;;;5049708;28;20096;-51
2021/06/04 11:44:49;;;;;;;2.38;2.17;;;23.70;50.90;;;;;;5038775;28;20080;-50
2021/06/04 11:47:19;;;;;;;3.17;2.42;;;23.60;50.80;;;;;;5038697;28;20068;-50
2021/06/04 11:49:59;;;;;;;5.07;2.70;;;23.60;51.40;;;;;;5040183;28;20112;-51
2021/06/04 11:52:32;;;;;;;6.25;2.65;;;23.60;50.80;;;;;;5044614;28;20057;-51
2021/06/04 11:55:19;;;;;;;4.72;2.50;;;23.60;50.90;;;;;;5050977;28;20498;-49
2021/06/04 11:57:52;;;;;;;3.13;2.75;;;23.60;50.90;;;;;;5038835;28;20111;-53
2021/06/04 12:00:26;;;;;;;3.93;2.70;;;23.60;50.90;;;;;;5037369;28;20070;-50
2021/06/04 12:03:07;;;;;;;2.72;2.22;;;23.60;50.90;;;;;;5039438;28;20050;-51
2021/06/04 12:05:37;;;;;;;3.73;2.43;;;23.60;50.90;;;;;;5046936;28;20041;-52
2021/06/04 12:08:16;;;;;;;5.10;2.72;;;23.50;50.80;;;;;;5039212;28;20049;-49
2021/06/04 12:10:46;;;;;;;4.47;2.53;;;23.50;50.80;;;;;;5047823;28;20460;-48
2021/06/04 12:13:34;;;;;;;5.72;2.70;;;23.60;50.90;;;;;;5054673;28;20099;-48
2021/06/04 12:16:27;;;;;;;3.67;2.40;;;23.50;50.80;;;;;;5053344;28;20072;-50
2021/06/04 12:19:03;;;;;;;3.95;2.33;;;23.50;50.80;;;;;;5042482;28;20057;-52
2021/06/04 12:21:42;;;;;;;7.25;2.50;;;23.50;50.80;;;;;;5051743;28;20041;-48
2021/06/04 12:24:22;;;;;;;4.43;2.60;;;23.50;50.80;;;;;;5055731;28;20048;-49
2021/06/04 12:27:02;;;;;;;3.22;2.22;;;23.60;50.90;;;;;;5041448;28;20092;-50
2021/06/04 12:29:31;;;;;;;3.00;2.42;;;23.60;50.90;;;;;;5054063;28;20056;-49
2021/06/04 12:32:05;;;;;;;3.80;2.80;;;23.50;50.70;;;;;;5053269;28;20072;-50
2021/06/04 12:34:35;;;;;;;3.67;2.70;;;23.50;50.70;;;;;;5040366;28;20068;-53
2021/06/04 12:37:17;;;;;;;4.53;2.53;;;23.50;50.80;;;;;;5052752;28;20099;-53
2021/06/04 12:40:22;;;;;;;5.03;2.47;;;23.60;50.80;;;;;;5039315;28;20045;-49
2021/06/04 12:42:57;;;;;;;8.15;2.53;;;23.60;50.90;;;;;;5053590;28;20049;-51
2021/06/04 12:45:30;;;;;;;3.20;2.42;;;23.50;50.80;;;;;;5036594;28;20045;-54
2021/06/04 12:48:06;;;;;;;3.15;2.22;;;23.50;50.80;;;;;;5053354;28;20152;-53
2021/06/04 12:50:40;;;;;;;4.10;2.42;;;23.50;50.80;;;;;;5035971;28;20103;-52
2021/06/04 12:53:30;;;;;;;3.10;2.25;;;23.50;50.80;;;;;;5036198;28;20093;-54
2021/06/04 12:56:01;;;;;;;2.55;2.17;;;23.50;50.80;;;;;;5053095;28;20049;-53
2021/06/04 12:58:31;;;;;;;4.25;2.35;;;23.50;50.80;;;;;;5052582;28;20049;-54
2021/06/04 13:01:16;;;;;;;2.80;2.10;;;23.50;50.90;;;;;;5038102;28;20115;-53
2021/06/04 13:03:48;;;;;;;4.50;2.45;;;23.50;50.80;;;;;;5039256;28;20044;-52
2021/06/04 13:06:21;;;;;;;4.03;2.15;;;23.50;50.80;;;;;;5051403;28;20098;-51
2021/06/04 13:08:49;;;;;;;3.03;2.33;;;23.50;50.80;;;;;;5064831;28;20515;-52
2021/06/04 13:11:35;;;;;;;3.92;2.42;;;23.50;50.80;;;;;;5037629;28;20134;-54
2021/06/04 13:14:30;;;;;;;5.63;2.22;;;23.50;50.80;;;;;;5041268;28;20413;-50
2021/06/04 13:17:14;;;;;;;2.70;2.35;;;23.50;50.80;;;;;;5065538;28;20041;-54
2021/06/04 13:19:43;;;;;;;3.88;2.20;;;23.50;50.80;;;;;;5047978;28;20049;-50
2021/06/04 13:22:26;;;;;;;2.85;2.10;;;23.50;50.80;;;;;;5037241;28;20107;-52
2021/06/04 13:24:57;;;;;;;2.67;2.10;;;23.50;50.80;;;;;;5036094;28;20049;-50
2021/06/04 13:27:28;;;;;;;2.72;2.10;;;23.50;50.80;;;;;;5037299;28;20045;-49